sensor_id;sensor_type;location;lat;lon;timestamp;temperature;humidity
82836;DHT22;72587;50.746;8.246;2024-03-22T00:01:25;7.90;99.90
82836;DHT22;72587;50.746;8.246;2024-03-22T00:03:50;7.90;99.90
82836;DHT22;72587;50.746;8.246;2024-03-22T00:06:16;7.90;99.90
82836;DHT22;72587;50.746;8.246;2024-03-22T00:08:41;7.90;99.90
82836;DHT22;72587;50.746;8.246;2024-03-22T00:11:07;7.90;99.90
82836;DHT22;72587;50.746;8.246;2024-03-22T00:13:32;7.90;99.90
82836;DHT22;72587;50.746;8.246;2024-03-22T00:15:57;7.80;99.90
82836;DHT22;72587;50.746;8.246;2024-03-22T00:18:23;7.80;99.90
82836;DHT22;72587;50.746;8.246;2024-03-22T00:20:48;7.80;99.90
82836;DHT22;72587;50.746;8.246;2024-03-22T00:23:14;7.70;99.90
82836;DHT22;72587;50.746;8.246;2024-03-22T00:25:39;7.70;99.90
82836;DHT22;72587;50.746;8.246;2024-03-22T00:28:05;7.60;99.90
82836;DHT22;72587;50.746;8.246;2024-03-22T00:30:30;7.50;99.90
82836;DHT22;72587;50.746;8.246;2024-03-22T00:32:56;7.50;99.90
82836;DHT22;72587;50.746;8.246;2024-03-22T00:35:21;7.40;99.90
82836;DHT22;72587;50.746;8.246;2024-03-22T00:37:46;7.40;99.90
82836;DHT22;72587;50.746;8.246;2024-03-22T00:40:12;7.20;99.90
82836;DHT22;72587;50.746;8.246;2024-03-22T00:42:37;7.20;99.90
82836;DHT22;72587;50.746;8.246;2024-03-22T00:45:03;7.20;99.90
82836;DHT22;72587;50.746;8.246;2024-03-22T00:47:28;7.10;99.90
82836;DHT22;72587;50.746;8.246;2024-03-22T00:49:54;7.10;99.90
82836;DHT22;72587;50.746;8.246;2024-03-22T00:52:19;7.10;99.90
82836;DHT22;72587;50.746;8.246;2024-03-22T00:54:45;7.10;99.90
82836;DHT22;72587;50.746;8.246;2024-03-22T00:57:10;7.00;99.90
82836;DHT22;72587;50.746;8.246;2024-03-22T00:59:36;7.00;99.90
82836;DHT22;72587;50.746;8.246;2024-03-22T01:02:01;7.00;99.90
82836;DHT22;72587;50.746;8.246;2024-03-22T01:04:27;7.00;99.90
82836;DHT22;72587;50.746;8.246;2024-03-22T01:06:52;7.00;99.90
82836;DHT22;72587;50.746;8.246;2024-03-22T01:09:18;7.00;99.90
82836;DHT22;72587;50.746;8.246;2024-03-22T01:11:44;7.00;99.90
82836;DHT22;72587;50.746;8.246;2024-03-22T01:14:10;7.00;99.90
82836;DHT22;72587;50.746;8.246;2024-03-22T01:16:35;7.00;99.90
82836;DHT22;72587;50.746;8.246;2024-03-22T01:19:01;7.00;99.90
82836;DHT22;72587;50.746;8.246;2024-03-22T01:21:26;7.00;99.90
82836;DHT22;72587;50.746;8.246;2024-03-22T01:23:52;7.00;99.90
82836;DHT22;72587;50.746;8.246;2024-03-22T01:26:17;7.10;99.90
82836;DHT22;72587;50.746;8.246;2024-03-22T01:28:43;7.10;99.90
82836;DHT22;72587;50.746;8.246;2024-03-22T01:31:08;7.20;99.90
82836;DHT22;72587;50.746;8.246;2024-03-22T01:33:34;7.20;99.90
82836;DHT22;72587;50.746;8.246;2024-03-22T01:35:59;7.10;99.90
82836;DHT22;72587;50.746;8.246;2024-03-22T01:38:25;7.10;99.90
82836;DHT22;72587;50.746;8.246;2024-03-22T01:40:50;7.10;99.90
82836;DHT22;72587;50.746;8.246;2024-03-22T01:43:16;7.00;99.90
82836;DHT22;72587;50.746;8.246;2024-03-22T01:45:41;7.00;99.90
82836;DHT22;72587;50.746;8.246;2024-03-22T01:48:07;6.90;99.90
82836;DHT22;72587;50.746;8.246;2024-03-22T01:50:32;6.80;99.90
82836;DHT22;72587;50.746;8.246;2024-03-22T01:52:58;6.80;99.90
82836;DHT22;72587;50.746;8.246;2024-03-22T01:55:23;6.70;99.90
82836;DHT22;72587;50.746;8.246;2024-03-22T01:57:49;6.70;99.90
82836;DHT22;72587;50.746;8.246;2024-03-22T02:00:16;6.60;99.90
82836;DHT22;72587;50.746;8.246;2024-03-22T02:02:42;6.60;99.90
82836;DHT22;72587;50.746;8.246;2024-03-22T02:05:17;6.50;99.90
82836;DHT22;72587;50.746;8.246;2024-03-22T02:07:47;6.40;99.90
82836;DHT22;72587;50.746;8.246;2024-03-22T02:10:13;6.40;99.90
82836;DHT22;72587;50.746;8.246;2024-03-22T02:12:39;6.40;99.90
82836;DHT22;72587;50.746;8.246;2024-03-22T02:15:05;6.40;99.90
82836;DHT22;72587;50.746;8.246;2024-03-22T02:17:32;6.40;99.90
82836;DHT22;72587;50.746;8.246;2024-03-22T02:19:58;6.40;99.90
82836;DHT22;72587;50.746;8.246;2024-03-22T02:22:23;6.30;99.90
82836;DHT22;72587;50.746;8.246;2024-03-22T02:24:49;6.30;99.90
82836;DHT22;72587;50.746;8.246;2024-03-22T02:27:14;6.30;99.90
82836;DHT22;72587;50.746;8.246;2024-03-22T02:29:40;6.30;99.90
82836;DHT22;72587;50.746;8.246;2024-03-22T02:32:05;6.30;99.90
82836;DHT22;72587;50.746;8.246;2024-03-22T02:34:31;6.30;99.90
82836;DHT22;72587;50.746;8.246;2024-03-22T02:36:56;6.30;99.90
82836;DHT22;72587;50.746;8.246;2024-03-22T02:39:22;6.30;99.90
82836;DHT22;72587;50.746;8.246;2024-03-22T02:41:47;6.40;99.90
82836;DHT22;72587;50.746;8.246;2024-03-22T02:44:13;6.40;99.90
82836;DHT22;72587;50.746;8.246;2024-03-22T02:46:38;6.40;99.90
82836;DHT22;72587;50.746;8.246;2024-03-22T02:49:04;6.30;99.90
82836;DHT22;72587;50.746;8.246;2024-03-22T02:51:29;6.40;99.90
82836;DHT22;72587;50.746;8.246;2024-03-22T02:53:55;6.40;99.90
82836;DHT22;72587;50.746;8.246;2024-03-22T02:56:20;6.40;99.90
82836;DHT22;72587;50.746;8.246;2024-03-22T02:58:46;6.50;99.90
82836;DHT22;72587;50.746;8.246;2024-03-22T03:01:11;6.50;99.90
82836;DHT22;72587;50.746;8.246;2024-03-22T03:03:37;6.50;99.90
82836;DHT22;72587;50.746;8.246;2024-03-22T03:06:02;6.50;99.90
82836;DHT22;72587;50.746;8.246;2024-03-22T03:08:28;6.40;99.90
82836;DHT22;72587;50.746;8.246;2024-03-22T03:10:53;6.40;99.90
82836;DHT22;72587;50.746;8.246;2024-03-22T03:13:19;6.40;99.90
82836;DHT22;72587;50.746;8.246;2024-03-22T03:15:44;6.40;99.90
82836;DHT22;72587;50.746;8.246;2024-03-22T03:18:10;6.40;99.90
82836;DHT22;72587;50.746;8.246;2024-03-22T03:20:35;6.30;99.90
82836;DHT22;72587;50.746;8.246;2024-03-22T03:23:00;6.30;99.90
82836;DHT22;72587;50.746;8.246;2024-03-22T03:25:27;6.30;99.90
82836;DHT22;72587;50.746;8.246;2024-03-22T03:27:52;6.40;99.90
82836;DHT22;72587;50.746;8.246;2024-03-22T03:30:18;6.30;99.90
82836;DHT22;72587;50.746;8.246;2024-03-22T03:32:43;6.30;99.90
82836;DHT22;72587;50.746;8.246;2024-03-22T03:35:09;6.30;99.90
82836;DHT22;72587;50.746;8.246;2024-03-22T03:37:34;6.30;99.90
82836;DHT22;72587;50.746;8.246;2024-03-22T03:39:59;6.40;99.90
82836;DHT22;72587;50.746;8.246;2024-03-22T03:42:25;6.30;99.90
82836;DHT22;72587;50.746;8.246;2024-03-22T03:44:50;6.40;99.90
82836;DHT22;72587;50.746;8.246;2024-03-22T03:47:16;6.40;99.90
82836;DHT22;72587;50.746;8.246;2024-03-22T03:49:41;6.40;99.90
82836;DHT22;72587;50.746;8.246;2024-03-22T03:52:07;6.40;99.90
82836;DHT22;72587;50.746;8.246;2024-03-22T03:54:32;6.50;99.90
82836;DHT22;72587;50.746;8.246;2024-03-22T03:56:58;6.50;99.90
82836;DHT22;72587;50.746;8.246;2024-03-22T03:59:23;6.50;99.90
82836;DHT22;72587;50.746;8.246;2024-03-22T04:01:49;6.50;99.90
82836;DHT22;72587;50.746;8.246;2024-03-22T04:04:15;6.50;99.90
82836;DHT22;72587;50.746;8.246;2024-03-22T04:06:40;6.50;99.90
82836;DHT22;72587;50.746;8.246;2024-03-22T04:09:06;6.50;99.90
82836;DHT22;72587;50.746;8.246;2024-03-22T04:11:31;6.50;99.90
82836;DHT22;72587;50.746;8.246;2024-03-22T04:13:57;6.60;99.90
82836;DHT22;72587;50.746;8.246;2024-03-22T04:16:22;6.70;99.90
82836;DHT22;72587;50.746;8.246;2024-03-22T04:18:48;6.70;99.90
82836;DHT22;72587;50.746;8.246;2024-03-22T04:21:13;6.70;99.90
82836;DHT22;72587;50.746;8.246;2024-03-22T04:23:39;6.70;99.90
82836;DHT22;72587;50.746;8.246;2024-03-22T04:26:04;6.70;99.90
82836;DHT22;72587;50.746;8.246;2024-03-22T04:28:30;6.70;99.90
82836;DHT22;72587;50.746;8.246;2024-03-22T04:30:56;6.70;99.90
82836;DHT22;72587;50.746;8.246;2024-03-22T04:33:22;6.70;99.90
82836;DHT22;72587;50.746;8.246;2024-03-22T04:35:47;6.70;99.90
82836;DHT22;72587;50.746;8.246;2024-03-22T04:38:13;6.80;99.90
82836;DHT22;72587;50.746;8.246;2024-03-22T04:40:39;6.80;99.90
82836;DHT22;72587;50.746;8.246;2024-03-22T04:43:04;6.80;99.90
82836;DHT22;72587;50.746;8.246;2024-03-22T04:45:30;6.90;99.90
82836;DHT22;72587;50.746;8.246;2024-03-22T04:47:55;6.90;99.90
82836;DHT22;72587;50.746;8.246;2024-03-22T04:50:20;6.90;99.90
82836;DHT22;72587;50.746;8.246;2024-03-22T04:52:46;6.90;99.90
82836;DHT22;72587;50.746;8.246;2024-03-22T04:55:11;6.90;99.90
82836;DHT22;72587;50.746;8.246;2024-03-22T04:57:37;6.90;99.90
82836;DHT22;72587;50.746;8.246;2024-03-22T05:00:02;7.00;99.90
82836;DHT22;72587;50.746;8.246;2024-03-22T05:02:28;6.90;99.90
82836;DHT22;72587;50.746;8.246;2024-03-22T05:04:54;6.90;99.90
82836;DHT22;72587;50.746;8.246;2024-03-22T05:07:19;6.90;99.90
82836;DHT22;72587;50.746;8.246;2024-03-22T05:09:45;6.90;99.90
82836;DHT22;72587;50.746;8.246;2024-03-22T05:12:10;6.90;99.90
82836;DHT22;72587;50.746;8.246;2024-03-22T05:14:35;7.00;99.90
82836;DHT22;72587;50.746;8.246;2024-03-22T05:17:01;7.10;99.90
82836;DHT22;72587;50.746;8.246;2024-03-22T05:19:27;7.00;99.90
82836;DHT22;72587;50.746;8.246;2024-03-22T05:21:52;7.00;99.90
82836;DHT22;72587;50.746;8.246;2024-03-22T05:24:17;7.10;99.90
82836;DHT22;72587;50.746;8.246;2024-03-22T05:26:43;7.10;99.90
82836;DHT22;72587;50.746;8.246;2024-03-22T05:29:08;7.10;99.90
82836;DHT22;72587;50.746;8.246;2024-03-22T05:31:36;7.20;99.90
82836;DHT22;72587;50.746;8.246;2024-03-22T05:34:10;7.20;99.90
82836;DHT22;72587;50.746;8.246;2024-03-22T05:36:35;7.20;99.90
82836;DHT22;72587;50.746;8.246;2024-03-22T05:39:01;7.30;99.90
82836;DHT22;72587;50.746;8.246;2024-03-22T05:41:27;7.30;99.90
82836;DHT22;72587;50.746;8.246;2024-03-22T05:43:52;7.40;99.90
82836;DHT22;72587;50.746;8.246;2024-03-22T05:46:18;7.30;99.90
82836;DHT22;72587;50.746;8.246;2024-03-22T05:48:43;7.40;99.90
82836;DHT22;72587;50.746;8.246;2024-03-22T05:51:08;7.30;99.90
82836;DHT22;72587;50.746;8.246;2024-03-22T05:53:34;7.30;99.90
82836;DHT22;72587;50.746;8.246;2024-03-22T05:56:00;7.30;99.90
82836;DHT22;72587;50.746;8.246;2024-03-22T05:58:25;7.40;99.90
82836;DHT22;72587;50.746;8.246;2024-03-22T06:00:51;7.30;99.90
82836;DHT22;72587;50.746;8.246;2024-03-22T06:03:18;7.40;99.90
82836;DHT22;72587;50.746;8.246;2024-03-22T06:05:44;7.40;99.90
82836;DHT22;72587;50.746;8.246;2024-03-22T06:08:09;7.40;99.90
82836;DHT22;72587;50.746;8.246;2024-03-22T06:10:35;7.40;99.90
82836;DHT22;72587;50.746;8.246;2024-03-22T06:13:00;7.50;99.90
82836;DHT22;72587;50.746;8.246;2024-03-22T06:15:25;7.50;99.90
82836;DHT22;72587;50.746;8.246;2024-03-22T06:17:51;7.50;99.90
82836;DHT22;72587;50.746;8.246;2024-03-22T06:20:17;7.60;99.90
82836;DHT22;72587;50.746;8.246;2024-03-22T06:22:42;7.60;99.90
82836;DHT22;72587;50.746;8.246;2024-03-22T06:25:07;7.60;99.90
82836;DHT22;72587;50.746;8.246;2024-03-22T06:27:33;7.70;99.90
82836;DHT22;72587;50.746;8.246;2024-03-22T06:29:58;7.70;99.90
82836;DHT22;72587;50.746;8.246;2024-03-22T06:32:24;7.80;99.90
82836;DHT22;72587;50.746;8.246;2024-03-22T06:34:49;7.90;99.90
82836;DHT22;72587;50.746;8.246;2024-03-22T06:37:15;8.00;99.90
82836;DHT22;72587;50.746;8.246;2024-03-22T06:39:40;8.10;99.90
82836;DHT22;72587;50.746;8.246;2024-03-22T06:42:06;8.10;99.90
82836;DHT22;72587;50.746;8.246;2024-03-22T06:44:31;8.20;99.90
82836;DHT22;72587;50.746;8.246;2024-03-22T06:46:57;8.30;99.90
82836;DHT22;72587;50.746;8.246;2024-03-22T06:49:22;8.30;99.90
82836;DHT22;72587;50.746;8.246;2024-03-22T06:51:48;8.40;99.90
82836;DHT22;72587;50.746;8.246;2024-03-22T06:54:13;8.40;99.90
82836;DHT22;72587;50.746;8.246;2024-03-22T06:56:38;8.40;99.90
82836;DHT22;72587;50.746;8.246;2024-03-22T06:59:04;8.40;99.90
82836;DHT22;72587;50.746;8.246;2024-03-22T07:01:29;8.40;99.90
82836;DHT22;72587;50.746;8.246;2024-03-22T07:03:55;8.40;99.90
82836;DHT22;72587;50.746;8.246;2024-03-22T07:06:20;8.60;99.90
82836;DHT22;72587;50.746;8.246;2024-03-22T07:08:46;8.60;99.90
82836;DHT22;72587;50.746;8.246;2024-03-22T07:11:11;8.70;99.90
82836;DHT22;72587;50.746;8.246;2024-03-22T07:13:37;8.60;99.90
82836;DHT22;72587;50.746;8.246;2024-03-22T07:16:03;8.70;99.90
82836;DHT22;72587;50.746;8.246;2024-03-22T07:18:28;8.80;99.90
82836;DHT22;72587;50.746;8.246;2024-03-22T07:20:54;8.80;99.90
82836;DHT22;72587;50.746;8.246;2024-03-22T07:23:19;8.90;99.90
82836;DHT22;72587;50.746;8.246;2024-03-22T07:25:45;9.00;99.90
82836;DHT22;72587;50.746;8.246;2024-03-22T07:28:14;9.10;99.90
82836;DHT22;72587;50.746;8.246;2024-03-22T07:30:39;9.10;99.90
82836;DHT22;72587;50.746;8.246;2024-03-22T07:33:05;9.30;99.90
82836;DHT22;72587;50.746;8.246;2024-03-22T07:35:30;9.50;99.90
82836;DHT22;72587;50.746;8.246;2024-03-22T07:37:56;9.80;99.90
82836;DHT22;72587;50.746;8.246;2024-03-22T07:40:21;10.10;99.90
82836;DHT22;72587;50.746;8.246;2024-03-22T07:42:47;10.40;99.90
82836;DHT22;72587;50.746;8.246;2024-03-22T07:45:12;10.70;99.90
82836;DHT22;72587;50.746;8.246;2024-03-22T07:47:38;11.00;99.90
82836;DHT22;72587;50.746;8.246;2024-03-22T07:50:04;11.50;99.90
82836;DHT22;72587;50.746;8.246;2024-03-22T07:52:29;12.10;99.90
82836;DHT22;72587;50.746;8.246;2024-03-22T07:54:55;12.40;99.90
82836;DHT22;72587;50.746;8.246;2024-03-22T07:57:21;12.90;99.90
82836;DHT22;72587;50.746;8.246;2024-03-22T07:59:46;13.20;99.90
82836;DHT22;72587;50.746;8.246;2024-03-22T08:02:12;13.40;99.90
82836;DHT22;72587;50.746;8.246;2024-03-22T08:04:38;13.60;99.90
82836;DHT22;72587;50.746;8.246;2024-03-22T08:07:03;13.80;99.90
82836;DHT22;72587;50.746;8.246;2024-03-22T08:09:29;13.90;99.90
82836;DHT22;72587;50.746;8.246;2024-03-22T08:11:54;14.20;99.90
82836;DHT22;72587;50.746;8.246;2024-03-22T08:14:20;14.70;99.90
82836;DHT22;72587;50.746;8.246;2024-03-22T08:16:45;15.30;99.90
82836;DHT22;72587;50.746;8.246;2024-03-22T08:19:11;15.60;99.90
82836;DHT22;72587;50.746;8.246;2024-03-22T08:21:37;15.80;99.90
82836;DHT22;72587;50.746;8.246;2024-03-22T08:24:02;15.80;99.90
82836;DHT22;72587;50.746;8.246;2024-03-22T08:26:28;15.90;99.90
82836;DHT22;72587;50.746;8.246;2024-03-22T08:28:53;16.00;99.90
82836;DHT22;72587;50.746;8.246;2024-03-22T08:31:19;16.10;99.90
82836;DHT22;72587;50.746;8.246;2024-03-22T08:33:50;16.20;99.90
82836;DHT22;72587;50.746;8.246;2024-03-22T08:36:16;16.20;99.90
82836;DHT22;72587;50.746;8.246;2024-03-22T08:38:42;16.40;99.90
82836;DHT22;72587;50.746;8.246;2024-03-22T08:41:07;16.90;99.90
82836;DHT22;72587;50.746;8.246;2024-03-22T08:43:33;17.10;99.90
82836;DHT22;72587;50.746;8.246;2024-03-22T08:45:58;17.40;99.90
82836;DHT22;72587;50.746;8.246;2024-03-22T08:48:23;17.60;99.90
82836;DHT22;72587;50.746;8.246;2024-03-22T08:50:49;17.70;99.90
82836;DHT22;72587;50.746;8.246;2024-03-22T08:53:14;17.90;99.90
82836;DHT22;72587;50.746;8.246;2024-03-22T08:55:46;18.10;99.90
82836;DHT22;72587;50.746;8.246;2024-03-22T08:58:13;18.10;99.90
82836;DHT22;72587;50.746;8.246;2024-03-22T09:00:38;18.00;99.90
82836;DHT22;72587;50.746;8.246;2024-03-22T09:03:04;17.80;99.90
82836;DHT22;72587;50.746;8.246;2024-03-22T09:05:29;17.80;99.90
82836;DHT22;72587;50.746;8.246;2024-03-22T09:07:55;17.40;99.90
82836;DHT22;72587;50.746;8.246;2024-03-22T09:10:22;17.20;99.90
82836;DHT22;72587;50.746;8.246;2024-03-22T09:12:47;17.30;99.90
82836;DHT22;72587;50.746;8.246;2024-03-22T09:15:13;17.30;99.90
82836;DHT22;72587;50.746;8.246;2024-03-22T09:17:38;17.30;99.90
82836;DHT22;72587;50.746;8.246;2024-03-22T09:20:04;17.40;99.90
82836;DHT22;72587;50.746;8.246;2024-03-22T09:22:30;17.70;99.90
82836;DHT22;72587;50.746;8.246;2024-03-22T09:24:57;17.70;99.90
82836;DHT22;72587;50.746;8.246;2024-03-22T09:27:23;17.40;99.90
82836;DHT22;72587;50.746;8.246;2024-03-22T09:29:48;17.10;99.90
82836;DHT22;72587;50.746;8.246;2024-03-22T09:32:14;17.40;99.90
82836;DHT22;72587;50.746;8.246;2024-03-22T09:34:39;17.50;99.90
82836;DHT22;72587;50.746;8.246;2024-03-22T09:37:05;17.30;99.90
82836;DHT22;72587;50.746;8.246;2024-03-22T09:39:31;17.10;99.90
82836;DHT22;72587;50.746;8.246;2024-03-22T09:41:57;17.40;99.90
82836;DHT22;72587;50.746;8.246;2024-03-22T09:44:24;17.40;99.90
82836;DHT22;72587;50.746;8.246;2024-03-22T09:46:52;17.70;99.90
82836;DHT22;72587;50.746;8.246;2024-03-22T09:49:18;17.80;99.90
82836;DHT22;72587;50.746;8.246;2024-03-22T09:51:45;17.90;99.90
82836;DHT22;72587;50.746;8.246;2024-03-22T09:54:11;17.90;99.90
82836;DHT22;72587;50.746;8.246;2024-03-22T09:56:39;18.30;99.90
82836;DHT22;72587;50.746;8.246;2024-03-22T09:59:05;18.20;99.90
82836;DHT22;72587;50.746;8.246;2024-03-22T10:01:32;18.10;99.90
82836;DHT22;72587;50.746;8.246;2024-03-22T10:03:59;17.80;99.90
82836;DHT22;72587;50.746;8.246;2024-03-22T10:06:25;17.90;99.90
82836;DHT22;72587;50.746;8.246;2024-03-22T10:08:50;17.90;99.90
82836;DHT22;72587;50.746;8.246;2024-03-22T10:11:16;17.90;99.90
82836;DHT22;72587;50.746;8.246;2024-03-22T10:13:41;17.90;99.90
82836;DHT22;72587;50.746;8.246;2024-03-22T10:16:07;18.20;99.90
82836;DHT22;72587;50.746;8.246;2024-03-22T10:18:33;18.40;99.90
82836;DHT22;72587;50.746;8.246;2024-03-22T10:21:02;18.50;99.90
82836;DHT22;72587;50.746;8.246;2024-03-22T10:23:28;18.50;99.90
82836;DHT22;72587;50.746;8.246;2024-03-22T10:25:55;18.50;99.90
82836;DHT22;72587;50.746;8.246;2024-03-22T10:28:21;18.80;99.90
82836;DHT22;72587;50.746;8.246;2024-03-22T10:30:47;18.60;99.90
82836;DHT22;72587;50.746;8.246;2024-03-22T10:33:14;18.60;99.90
82836;DHT22;72587;50.746;8.246;2024-03-22T10:35:40;18.70;99.90
82836;DHT22;72587;50.746;8.246;2024-03-22T10:38:06;18.90;99.90
82836;DHT22;72587;50.746;8.246;2024-03-22T10:40:32;18.90;99.90
82836;DHT22;72587;50.746;8.246;2024-03-22T10:42:59;18.80;99.90
82836;DHT22;72587;50.746;8.246;2024-03-22T10:45:25;18.60;99.90
82836;DHT22;72587;50.746;8.246;2024-03-22T10:47:53;18.20;99.90
82836;DHT22;72587;50.746;8.246;2024-03-22T10:50:20;17.80;99.90
82836;DHT22;72587;50.746;8.246;2024-03-22T10:52:48;17.70;99.90
82836;DHT22;72587;50.746;8.246;2024-03-22T10:55:19;17.60;99.90
82836;DHT22;72587;50.746;8.246;2024-03-22T10:57:45;17.40;99.90
82836;DHT22;72587;50.746;8.246;2024-03-22T11:00:11;17.40;99.90
82836;DHT22;72587;50.746;8.246;2024-03-22T11:02:37;17.10;99.90
82836;DHT22;72587;50.746;8.246;2024-03-22T11:05:05;17.00;99.90
82836;DHT22;72587;50.746;8.246;2024-03-22T11:07:32;16.90;99.90
82836;DHT22;72587;50.746;8.246;2024-03-22T11:09:58;17.00;99.90
82836;DHT22;72587;50.746;8.246;2024-03-22T11:12:25;17.00;99.90
82836;DHT22;72587;50.746;8.246;2024-03-22T11:14:55;17.20;99.90
82836;DHT22;72587;50.746;8.246;2024-03-22T11:17:20;17.30;99.90
82836;DHT22;72587;50.746;8.246;2024-03-22T11:19:52;17.20;99.90
82836;DHT22;72587;50.746;8.246;2024-03-22T11:22:18;17.20;99.90
82836;DHT22;72587;50.746;8.246;2024-03-22T11:24:43;17.10;99.90
82836;DHT22;72587;50.746;8.246;2024-03-22T11:27:09;17.00;99.90
82836;DHT22;72587;50.746;8.246;2024-03-22T11:29:36;16.80;99.90
82836;DHT22;72587;50.746;8.246;2024-03-22T11:32:04;16.80;99.90
82836;DHT22;72587;50.746;8.246;2024-03-22T11:34:30;16.70;99.90
82836;DHT22;72587;50.746;8.246;2024-03-22T11:36:55;16.50;99.90
82836;DHT22;72587;50.746;8.246;2024-03-22T11:39:21;16.40;99.90
82836;DHT22;72587;50.746;8.246;2024-03-22T11:41:47;16.50;99.90
82836;DHT22;72587;50.746;8.246;2024-03-22T11:44:14;16.50;99.90
82836;DHT22;72587;50.746;8.246;2024-03-22T11:46:40;16.60;99.90
82836;DHT22;72587;50.746;8.246;2024-03-22T11:49:06;16.80;99.90
82836;DHT22;72587;50.746;8.246;2024-03-22T11:51:31;16.70;99.90
82836;DHT22;72587;50.746;8.246;2024-03-22T11:53:57;16.70;99.90
82836;DHT22;72587;50.746;8.246;2024-03-22T11:56:24;16.80;99.90
82836;DHT22;72587;50.746;8.246;2024-03-22T11:58:57;16.70;99.90
82836;DHT22;72587;50.746;8.246;2024-03-22T12:01:22;16.60;99.90
82836;DHT22;72587;50.746;8.246;2024-03-22T12:03:48;16.50;99.90
82836;DHT22;72587;50.746;8.246;2024-03-22T12:06:14;16.50;99.90
82836;DHT22;72587;50.746;8.246;2024-03-22T12:08:40;16.50;99.90
82836;DHT22;72587;50.746;8.246;2024-03-22T12:11:09;16.60;99.90
82836;DHT22;72587;50.746;8.246;2024-03-22T12:13:35;16.70;99.90
82836;DHT22;72587;50.746;8.246;2024-03-22T12:16:00;16.70;99.90
82836;DHT22;72587;50.746;8.246;2024-03-22T12:18:27;16.80;99.90
82836;DHT22;72587;50.746;8.246;2024-03-22T12:20:52;16.70;99.90
82836;DHT22;72587;50.746;8.246;2024-03-22T12:23:18;16.80;99.90
82836;DHT22;72587;50.746;8.246;2024-03-22T12:25:43;16.90;99.90
82836;DHT22;72587;50.746;8.246;2024-03-22T12:28:09;16.90;99.90
82836;DHT22;72587;50.746;8.246;2024-03-22T12:30:34;16.90;99.90
82836;DHT22;72587;50.746;8.246;2024-03-22T12:33:00;16.80;99.90
82836;DHT22;72587;50.746;8.246;2024-03-22T12:35:26;16.80;99.90
82836;DHT22;72587;50.746;8.246;2024-03-22T12:37:52;16.70;99.90
82836;DHT22;72587;50.746;8.246;2024-03-22T12:40:18;16.70;99.90
82836;DHT22;72587;50.746;8.246;2024-03-22T12:42:44;16.70;99.90
82836;DHT22;72587;50.746;8.246;2024-03-22T12:45:09;16.70;99.90
82836;DHT22;72587;50.746;8.246;2024-03-22T12:47:34;16.70;99.90
82836;DHT22;72587;50.746;8.246;2024-03-22T12:50:00;16.60;99.90
82836;DHT22;72587;50.746;8.246;2024-03-22T12:52:25;16.40;99.90
82836;DHT22;72587;50.746;8.246;2024-03-22T12:54:51;16.30;99.90
82836;DHT22;72587;50.746;8.246;2024-03-22T12:57:16;16.20;99.90
82836;DHT22;72587;50.746;8.246;2024-03-22T12:59:42;16.20;99.90
82836;DHT22;72587;50.746;8.246;2024-03-22T13:02:07;16.20;99.90
82836;DHT22;72587;50.746;8.246;2024-03-22T13:04:33;16.10;99.90
82836;DHT22;72587;50.746;8.246;2024-03-22T13:06:58;16.20;99.90
82836;DHT22;72587;50.746;8.246;2024-03-22T13:09:24;16.20;99.90
82836;DHT22;72587;50.746;8.246;2024-03-22T13:11:49;16.20;99.90
82836;DHT22;72587;50.746;8.246;2024-03-22T13:14:15;16.20;99.90
82836;DHT22;72587;50.746;8.246;2024-03-22T13:16:40;16.30;99.90
82836;DHT22;72587;50.746;8.246;2024-03-22T13:19:06;16.30;99.90
82836;DHT22;72587;50.746;8.246;2024-03-22T13:21:33;16.30;99.90
82836;DHT22;72587;50.746;8.246;2024-03-22T13:23:59;16.40;99.90
82836;DHT22;72587;50.746;8.246;2024-03-22T13:26:25;16.40;99.90
82836;DHT22;72587;50.746;8.246;2024-03-22T13:28:51;16.40;99.90
82836;DHT22;72587;50.746;8.246;2024-03-22T13:31:17;16.50;99.90
82836;DHT22;72587;50.746;8.246;2024-03-22T13:33:42;16.50;99.90
82836;DHT22;72587;50.746;8.246;2024-03-22T13:36:08;16.40;99.90
82836;DHT22;72587;50.746;8.246;2024-03-22T13:38:34;16.40;99.90
82836;DHT22;72587;50.746;8.246;2024-03-22T13:40:59;16.30;99.90
82836;DHT22;72587;50.746;8.246;2024-03-22T13:43:26;16.40;99.90
82836;DHT22;72587;50.746;8.246;2024-03-22T13:45:52;16.40;99.90
82836;DHT22;72587;50.746;8.246;2024-03-22T13:48:21;16.40;99.90
82836;DHT22;72587;50.746;8.246;2024-03-22T13:50:52;16.40;99.90
82836;DHT22;72587;50.746;8.246;2024-03-22T13:53:18;16.60;99.90
82836;DHT22;72587;50.746;8.246;2024-03-22T13:55:44;16.70;99.90
82836;DHT22;72587;50.746;8.246;2024-03-22T13:58:10;16.70;99.90
82836;DHT22;72587;50.746;8.246;2024-03-22T14:00:36;16.80;99.90
82836;DHT22;72587;50.746;8.246;2024-03-22T14:03:01;16.80;99.90
82836;DHT22;72587;50.746;8.246;2024-03-22T14:05:27;16.80;99.90
82836;DHT22;72587;50.746;8.246;2024-03-22T14:07:52;16.80;99.90
82836;DHT22;72587;50.746;8.246;2024-03-22T14:10:18;16.80;99.90
82836;DHT22;72587;50.746;8.246;2024-03-22T14:12:45;16.90;99.90
82836;DHT22;72587;50.746;8.246;2024-03-22T14:15:10;16.90;99.90
82836;DHT22;72587;50.746;8.246;2024-03-22T14:17:36;16.90;99.90
82836;DHT22;72587;50.746;8.246;2024-03-22T14:20:01;17.00;99.90
82836;DHT22;72587;50.746;8.246;2024-03-22T14:22:30;16.90;99.90
82836;DHT22;72587;50.746;8.246;2024-03-22T14:24:56;16.90;99.90
82836;DHT22;72587;50.746;8.246;2024-03-22T14:27:21;16.80;99.90
82836;DHT22;72587;50.746;8.246;2024-03-22T14:29:47;16.70;99.90
82836;DHT22;72587;50.746;8.246;2024-03-22T14:32:12;16.70;99.90
82836;DHT22;72587;50.746;8.246;2024-03-22T14:34:38;17.00;99.90
82836;DHT22;72587;50.746;8.246;2024-03-22T14:37:03;17.30;99.90
82836;DHT22;72587;50.746;8.246;2024-03-22T14:39:29;17.60;99.90
82836;DHT22;72587;50.746;8.246;2024-03-22T14:41:54;18.00;99.90
82836;DHT22;72587;50.746;8.246;2024-03-22T14:44:20;18.30;99.90
82836;DHT22;72587;50.746;8.246;2024-03-22T14:46:45;18.40;99.90
82836;DHT22;72587;50.746;8.246;2024-03-22T14:49:11;18.40;99.90
82836;DHT22;72587;50.746;8.246;2024-03-22T14:51:37;18.30;99.90
82836;DHT22;72587;50.746;8.246;2024-03-22T14:54:02;18.30;99.90
82836;DHT22;72587;50.746;8.246;2024-03-22T14:56:29;18.20;99.90
82836;DHT22;72587;50.746;8.246;2024-03-22T14:58:55;18.00;99.90
82836;DHT22;72587;50.746;8.246;2024-03-22T15:01:22;18.10;99.90
82836;DHT22;72587;50.746;8.246;2024-03-22T15:03:48;18.10;99.90
82836;DHT22;72587;50.746;8.246;2024-03-22T15:06:15;18.20;99.90
82836;DHT22;72587;50.746;8.246;2024-03-22T15:08:40;18.10;99.90
82836;DHT22;72587;50.746;8.246;2024-03-22T15:11:06;18.10;99.90
82836;DHT22;72587;50.746;8.246;2024-03-22T15:13:31;18.10;99.90
82836;DHT22;72587;50.746;8.246;2024-03-22T15:15:57;18.00;99.90
82836;DHT22;72587;50.746;8.246;2024-03-22T15:18:23;18.10;99.90
82836;DHT22;72587;50.746;8.246;2024-03-22T15:20:49;18.00;99.90
82836;DHT22;72587;50.746;8.246;2024-03-22T15:23:15;18.00;99.90
82836;DHT22;72587;50.746;8.246;2024-03-22T15:25:41;18.00;99.90
82836;DHT22;72587;50.746;8.246;2024-03-22T15:28:07;18.00;99.90